createdAt,value
2019-06-20T00:01:24.721Z,1.33
2019-06-20T00:03:53.128Z,1.10
2019-06-20T00:06:21.742Z,1.00
2019-06-20T00:08:50.389Z,1.20
2019-06-20T00:11:19.104Z,1.10
2019-06-20T00:13:47.883Z,1.00
2019-06-20T00:16:16.287Z,1.17
2019-06-20T00:18:44.981Z,1.20
2019-06-20T00:21:13.676Z,1.23
2019-06-20T00:23:42.433Z,1.37
2019-06-20T00:26:11.178Z,1.20
2019-06-20T00:28:39.886Z,1.20
2019-06-20T00:31:08.576Z,1.17
2019-06-20T00:33:37.281Z,1.10
2019-06-20T00:36:05.976Z,1.37
2019-06-20T00:38:34.685Z,1.13
2019-06-20T00:41:03.380Z,1.50
2019-06-20T00:43:31.908Z,1.40
2019-06-20T00:46:00.580Z,1.30
2019-06-20T00:48:29.005Z,1.37
2019-06-20T00:50:57.761Z,1.60
2019-06-20T00:53:26.159Z,1.43
2019-06-20T00:55:54.655Z,1.20
2019-06-20T00:58:23.051Z,1.20
2019-06-20T01:00:51.453Z,2.80
2019-06-20T01:03:20.257Z,2.07
2019-06-20T01:05:48.937Z,1.50
2019-06-20T01:08:17.739Z,1.00
2019-06-20T01:10:46.133Z,1.50
2019-06-20T01:13:14.542Z,1.43
2019-06-20T01:15:43.528Z,1.30
2019-06-20T01:18:12.229Z,1.30
2019-06-20T01:20:40.717Z,1.40
2019-06-20T01:23:09.428Z,1.40
2019-06-20T01:25:43.137Z,1.37
2019-06-20T01:28:11.552Z,1.47
2019-06-20T01:30:40.236Z,1.30
2019-06-20T01:33:08.658Z,1.30
2019-06-20T01:35:37.337Z,1.50
2019-06-20T01:38:06.230Z,1.43
2019-06-20T01:40:35.778Z,1.43
2019-06-20T01:43:04.333Z,1.23
2019-06-20T01:45:32.752Z,1.20
2019-06-20T01:48:01.154Z,1.40
2019-06-20T01:50:30.053Z,1.17
2019-06-20T01:52:58.464Z,1.47
2019-06-20T01:55:26.868Z,1.40
2019-06-20T01:57:55.284Z,1.43
2019-06-20T02:00:33.134Z,1.57
2019-06-20T02:03:01.962Z,1.40
2019-06-20T02:05:30.552Z,1.33
2019-06-20T02:07:59.146Z,1.30
2019-06-20T02:10:27.555Z,1.30
2019-06-20T02:12:55.964Z,1.37
2019-06-20T02:15:24.815Z,1.70
2019-06-20T02:17:53.214Z,1.53
2019-06-20T02:20:30.797Z,1.40
2019-06-20T02:22:59.520Z,1.20
2019-06-20T02:25:47.334Z,1.20
2019-06-20T02:28:15.914Z,1.40
2019-06-20T02:30:44.762Z,1.27
2019-06-20T02:33:13.183Z,1.40
2019-06-20T02:35:42.057Z,1.40
2019-06-20T02:38:10.858Z,1.63
2019-06-20T02:40:39.492Z,1.53
2019-06-20T02:43:07.954Z,1.30
2019-06-20T02:45:37.262Z,1.33
2019-06-20T02:48:06.500Z,1.50
2019-06-20T02:50:35.451Z,1.40
2019-06-20T02:53:05.302Z,1.40
2019-06-20T02:55:34.006Z,1.50
2019-06-20T02:58:03.009Z,1.50
2019-06-20T03:00:40.518Z,1.50
2019-06-20T03:03:09.212Z,1.60
2019-06-20T03:05:38.377Z,1.50
2019-06-20T03:08:06.956Z,1.50
2019-06-20T03:10:35.357Z,1.50
2019-06-20T03:13:03.768Z,1.40
2019-06-20T03:15:32.201Z,1.77
2019-06-20T03:18:00.900Z,1.47
2019-06-20T03:20:29.605Z,1.40
2019-06-20T03:22:58.080Z,1.47
2019-06-20T03:25:26.504Z,1.67
2019-06-20T03:27:54.899Z,1.40
2019-06-20T03:30:23.401Z,2.10
2019-06-20T03:32:51.812Z,1.70
2019-06-20T03:35:20.408Z,1.73
2019-06-20T03:37:50.302Z,1.73
2019-06-20T03:40:18.950Z,1.53
2019-06-20T03:42:47.355Z,1.73
2019-06-20T03:45:16.394Z,1.67
2019-06-20T03:47:44.808Z,1.87
2019-06-20T03:50:13.792Z,1.70
2019-06-20T03:52:42.496Z,1.50
2019-06-20T03:55:11.609Z,1.90
2019-06-20T03:57:40.106Z,1.33
2019-06-20T04:00:09.617Z,1.60
2019-06-20T04:02:38.320Z,1.60
2019-06-20T04:05:07.339Z,1.60
2019-06-20T04:07:35.808Z,1.60
2019-06-20T04:10:05.543Z,1.60
2019-06-20T04:12:34.237Z,1.33
2019-06-20T04:15:18.174Z,1.87
2019-06-20T04:17:32.847Z,1.73
2019-06-20T04:20:01.497Z,1.47
2019-06-20T04:22:30.175Z,1.60
2019-06-20T04:24:58.587Z,1.37
2019-06-20T04:27:27.344Z,1.80
2019-06-20T04:29:56.049Z,1.50
2019-06-20T04:32:24.861Z,1.43
2019-06-20T04:34:53.270Z,1.83
2019-06-20T04:37:22.044Z,1.27
2019-06-20T04:39:50.479Z,1.63
2019-06-20T04:42:19.089Z,1.60
2019-06-20T04:44:47.539Z,1.50
2019-06-20T04:47:17.170Z,1.67
2019-06-20T04:49:45.590Z,1.40
2019-06-20T04:52:13.992Z,1.60
2019-06-20T04:54:42.421Z,1.60
2019-06-20T04:57:10.829Z,1.40
2019-06-20T04:59:39.522Z,1.57
2019-06-20T05:02:08.221Z,1.40
2019-06-20T05:04:36.940Z,1.50
2019-06-20T05:07:08.688Z,1.30
2019-06-20T05:09:37.389Z,1.47
2019-06-20T05:12:05.808Z,1.50
2019-06-20T05:14:34.204Z,1.40
2019-06-20T05:17:02.629Z,1.43
2019-06-20T05:19:31.378Z,1.60
2019-06-20T05:21:59.798Z,1.50
2019-06-20T05:24:28.204Z,1.50
2019-06-20T05:26:56.864Z,1.30
2019-06-20T05:29:25.288Z,1.60
2019-06-20T05:31:53.692Z,1.67
2019-06-20T05:34:22.446Z,1.90
2019-06-20T05:36:51.141Z,1.73
2019-06-20T05:39:19.554Z,1.50
2019-06-20T05:41:48.228Z,1.67
2019-06-20T05:44:16.934Z,1.60
2019-06-20T05:46:45.408Z,1.50
2019-06-20T05:49:13.804Z,1.63
2019-06-20T05:51:42.517Z,1.60
2019-06-20T05:54:10.916Z,1.67
2019-06-20T05:56:39.342Z,1.50
2019-06-20T05:59:08.253Z,2.00
2019-06-20T06:01:36.827Z,1.70
2019-06-20T06:04:05.238Z,1.40
2019-06-20T06:06:33.999Z,1.60
2019-06-20T06:09:02.455Z,1.80
2019-06-20T06:11:31.205Z,1.70
2019-06-20T06:13:59.889Z,1.90
2019-06-20T06:16:28.527Z,1.60
2019-06-20T06:18:57.245Z,1.90
2019-06-20T06:21:25.992Z,1.50
2019-06-20T06:23:54.685Z,1.80
2019-06-20T06:26:23.096Z,1.50
2019-06-20T06:28:51.522Z,1.37
2019-06-20T06:31:19.926Z,1.60
2019-06-20T06:33:48.340Z,1.60
2019-06-20T06:36:16.789Z,1.70
2019-06-20T06:38:45.563Z,1.50
2019-06-20T06:41:13.986Z,1.60
2019-06-20T06:43:42.750Z,1.70
2019-06-20T06:46:11.173Z,1.65
2019-06-20T06:48:39.839Z,1.70
2019-06-20T06:51:08.633Z,1.80
2019-06-20T06:53:37.341Z,1.77
2019-06-20T06:56:05.835Z,1.90
2019-06-20T06:58:34.240Z,1.92
2019-06-20T07:01:02.913Z,2.20
2019-06-20T07:03:31.633Z,1.82
2019-06-20T07:06:00.325Z,1.80
2019-06-20T07:08:29.022Z,2.22
2019-06-20T07:10:57.716Z,2.10
2019-06-20T07:13:26.422Z,2.22
2019-06-20T07:15:55.117Z,2.27
2019-06-20T07:18:23.538Z,1.95
2019-06-20T07:20:52.012Z,1.60
2019-06-20T07:23:20.490Z,2.00
2019-06-20T07:25:48.911Z,2.10
2019-06-20T07:28:17.602Z,2.02
2019-06-20T07:30:46.292Z,1.80
2019-06-20T07:33:14.835Z,2.10
2019-06-20T07:35:43.398Z,2.10
2019-06-20T07:38:11.841Z,1.90
2019-06-20T07:40:40.253Z,2.02
2019-06-20T07:43:08.652Z,2.25
2019-06-20T07:45:37.362Z,2.10
2019-06-20T07:48:05.760Z,2.10
2019-06-20T07:50:34.234Z,2.15
2019-06-20T07:53:03.120Z,2.00
2019-06-20T07:55:31.637Z,2.00
2019-06-20T07:58:00.038Z,2.30
2019-06-20T08:00:29.799Z,2.27
2019-06-20T08:02:58.456Z,2.02
2019-06-20T08:05:27.158Z,2.20
2019-06-20T08:07:55.560Z,1.80
2019-06-20T08:10:24.318Z,1.80
2019-06-20T08:12:53.058Z,2.10
2019-06-20T08:15:21.964Z,2.10
2019-06-20T08:17:50.590Z,2.30
2019-06-20T08:20:19.853Z,2.10
2019-06-20T08:22:48.335Z,2.08
2019-06-20T08:25:17.630Z,2.30
2019-06-20T08:27:55.963Z,2.00
2019-06-20T08:30:34.140Z,1.92
2019-06-20T08:33:08.750Z,2.00
2019-06-20T08:35:33.825Z,2.25
2019-06-20T08:38:03.771Z,2.10
2019-06-20T08:40:36.237Z,2.12
2019-06-20T08:43:06.287Z,2.10
2019-06-20T08:45:37.790Z,2.00
2019-06-20T08:48:07.430Z,1.90
2019-06-20T08:50:36.420Z,2.15
2019-06-20T08:53:05.905Z,1.98
2019-06-20T08:55:35.366Z,1.92
2019-06-20T08:58:05.589Z,2.27
2019-06-20T09:00:36.926Z,1.72
2019-06-20T09:03:06.718Z,1.80
2019-06-20T09:05:35.534Z,2.12
2019-06-20T09:08:04.854Z,1.80
2019-06-20T09:10:41.178Z,2.00
2019-06-20T09:13:12.157Z,1.82
2019-06-20T09:15:41.500Z,1.95
2019-06-20T09:18:10.076Z,2.00
2019-06-20T09:20:39.131Z,1.95
2019-06-20T09:23:07.623Z,1.87
2019-06-20T09:25:36.008Z,2.10
2019-06-20T09:28:05.464Z,1.77
2019-06-20T09:30:34.868Z,1.65
2019-06-20T09:33:04.220Z,2.00
2019-06-20T09:35:32.939Z,2.00
2019-06-20T09:38:01.880Z,1.80
2019-06-20T09:40:30.586Z,1.80
2019-06-20T09:42:59.384Z,1.62
2019-06-20T09:45:28.092Z,2.10
2019-06-20T09:47:56.518Z,1.60
2019-06-20T09:50:25.206Z,1.60
2019-06-20T09:52:54.916Z,1.80
2019-06-20T09:55:24.018Z,2.17
2019-06-20T09:57:53.755Z,1.98
2019-06-20T10:00:25.131Z,1.85
2019-06-20T10:02:54.424Z,1.70
2019-06-20T10:05:24.520Z,1.65
2019-06-20T10:07:54.368Z,1.60
2019-06-20T10:10:29.108Z,1.70
2019-06-20T10:12:58.042Z,1.77
2019-06-20T10:15:32.061Z,1.62
2019-06-20T10:18:00.587Z,1.40
2019-06-20T10:20:30.064Z,1.50
2019-06-20T10:23:18.103Z,1.40
2019-06-20T10:25:47.790Z,1.45
2019-06-20T10:28:16.642Z,1.45
2019-06-20T10:30:46.474Z,1.40
2019-06-20T10:33:15.256Z,1.45
2019-06-20T10:35:45.237Z,1.55
2019-06-20T10:38:14.497Z,1.30
2019-06-20T10:40:44.726Z,1.37
2019-06-20T10:43:13.330Z,1.50
2019-06-20T10:45:44.012Z,1.98
2019-06-20T10:48:12.505Z,1.60
2019-06-20T10:50:42.315Z,1.55
2019-06-20T10:53:11.248Z,1.30
2019-06-20T10:55:41.472Z,1.67
2019-06-20T10:58:10.347Z,1.42
2019-06-20T11:00:39.838Z,1.50
2019-06-20T11:03:09.177Z,1.50
2019-06-20T11:05:39.281Z,1.35
2019-06-20T11:08:08.022Z,1.27
2019-06-20T11:10:37.017Z,1.22
2019-06-20T11:13:05.925Z,1.35
2019-06-20T11:15:37.519Z,1.20
2019-06-20T11:18:06.775Z,1.60
2019-06-20T11:20:35.604Z,1.70
2019-06-20T11:23:04.076Z,1.20
2019-06-20T11:25:32.507Z,1.30
2019-06-20T11:28:00.914Z,1.30
2019-06-20T11:30:44.773Z,1.30
2019-06-20T11:33:01.566Z,1.40
2019-06-20T11:35:30.040Z,1.40
2019-06-20T11:37:58.778Z,1.17
2019-06-20T11:40:27.247Z,1.20
2019-06-20T11:42:55.942Z,1.50
2019-06-20T11:45:25.184Z,1.17
2019-06-20T11:47:53.609Z,1.50
2019-06-20T11:50:22.786Z,1.27
2019-06-20T11:52:51.209Z,1.42
2019-06-20T11:55:21.389Z,1.70
2019-06-20T11:58:01.790Z,1.35
2019-06-20T12:00:30.370Z,1.37
2019-06-20T12:02:59.060Z,1.55
2019-06-20T12:05:27.748Z,1.80
2019-06-20T12:07:56.453Z,1.60
2019-06-20T12:10:24.944Z,1.72
2019-06-20T12:12:53.649Z,2.10
2019-06-20T12:15:22.565Z,1.70
2019-06-20T12:17:51.500Z,1.85
2019-06-20T12:20:21.409Z,1.75
2019-06-20T12:22:50.806Z,1.60
2019-06-20T12:25:20.637Z,1.90
2019-06-20T12:27:49.734Z,1.77
2019-06-20T12:30:19.786Z,1.57
2019-06-20T12:32:49.390Z,1.50
2019-06-20T12:35:18.149Z,2.10
2019-06-20T12:37:47.746Z,2.30
2019-06-20T12:40:17.096Z,2.35
2019-06-20T12:42:46.766Z,2.00
2019-06-20T12:45:16.261Z,2.20
2019-06-20T12:47:45.935Z,2.50
2019-06-20T12:50:16.016Z,1.85
2019-06-20T12:52:45.765Z,1.70
2019-06-20T12:55:14.894Z,1.37
2019-06-20T12:57:55.798Z,1.52
2019-06-20T13:00:26.794Z,1.55
2019-06-20T13:02:55.490Z,1.60
2019-06-20T13:05:25.561Z,1.65
2019-06-20T13:07:54.045Z,1.60
2019-06-20T13:10:22.693Z,1.50
2019-06-20T13:12:51.636Z,1.40
2019-06-20T13:15:21.443Z,1.50
2019-06-20T13:17:49.959Z,1.45
2019-06-20T13:20:18.774Z,1.50
2019-06-20T13:22:49.352Z,1.37
2019-06-20T13:25:17.948Z,1.40
2019-06-20T13:27:47.625Z,1.22
2019-06-20T13:30:17.422Z,1.12
2019-06-20T13:32:47.004Z,1.50
2019-06-20T13:35:16.066Z,1.10
2019-06-20T13:37:45.763Z,1.30
2019-06-20T13:40:16.968Z,1.40
2019-06-20T13:42:46.111Z,1.12
2019-06-20T13:45:20.898Z,1.30
2019-06-20T13:47:49.935Z,1.50
2019-06-20T13:50:20.853Z,1.10
2019-06-20T13:52:51.201Z,1.20
2019-06-20T13:55:19.678Z,1.20
2019-06-20T13:57:49.219Z,1.30
2019-06-20T14:00:20.412Z,1.47
2019-06-20T14:02:49.514Z,1.00
2019-06-20T14:05:19.037Z,1.22
2019-06-20T14:07:51.822Z,1.30
2019-06-20T14:10:20.018Z,1.37
2019-06-20T14:12:48.858Z,1.20
2019-06-20T14:15:18.786Z,1.25
2019-06-20T14:17:47.970Z,1.20
2019-06-20T14:20:19.393Z,1.20
2019-06-20T14:22:49.497Z,1.42
2019-06-20T14:25:19.214Z,1.30
2019-06-20T14:27:49.018Z,1.50
2019-06-20T14:30:19.786Z,1.20
2019-06-20T14:32:49.415Z,1.20
2019-06-20T14:35:18.630Z,1.30
2019-06-20T14:37:47.843Z,1.10
2019-06-20T14:40:17.896Z,1.17
2019-06-20T14:42:47.697Z,1.10
2019-06-20T14:45:17.744Z,1.15
2019-06-20T14:47:46.549Z,1.07
2019-06-20T14:50:15.649Z,1.10
2019-06-20T14:52:44.608Z,1.07
2019-06-20T14:55:15.136Z,1.30
2019-06-20T14:57:44.904Z,1.07
2019-06-20T15:00:14.761Z,1.15
2019-06-20T15:02:45.111Z,1.20
2019-06-20T15:05:15.119Z,1.20
2019-06-20T15:07:45.394Z,1.42
2019-06-20T15:10:15.527Z,1.12
2019-06-20T15:12:45.725Z,1.10
2019-06-20T15:15:15.042Z,1.30
2019-06-20T15:17:46.435Z,1.20
2019-06-20T15:20:14.478Z,1.30
2019-06-20T15:22:43.076Z,1.70
2019-06-20T15:25:12.805Z,1.37
2019-06-20T15:27:41.723Z,1.30
2019-06-20T15:30:10.468Z,1.30
2019-06-20T15:32:53.343Z,1.40
2019-06-20T15:35:10.399Z,1.10
2019-06-20T15:37:38.813Z,1.32
2019-06-20T15:40:09.101Z,1.40
2019-06-20T15:42:37.502Z,1.32
2019-06-20T15:45:08.578Z,1.30
2019-06-20T15:47:37.630Z,1.57
2019-06-20T15:50:08.199Z,1.40
2019-06-20T15:52:36.900Z,1.27
2019-06-20T15:55:06.395Z,1.42
2019-06-20T15:57:34.798Z,1.30
2019-06-20T16:00:06.066Z,1.42
2019-06-20T16:02:34.906Z,1.30
2019-06-20T16:05:05.365Z,1.15
2019-06-20T16:07:34.114Z,1.62
2019-06-20T16:10:02.609Z,1.55
2019-06-20T16:12:31.029Z,1.70
2019-06-20T16:14:59.453Z,1.50
2019-06-20T16:17:27.880Z,1.50
2019-06-20T16:19:56.585Z,1.35
2019-06-20T16:22:24.995Z,1.35
2019-06-20T16:24:53.701Z,1.30
2019-06-20T16:27:22.170Z,1.25
2019-06-20T16:29:50.587Z,1.30
2019-06-20T16:32:19.271Z,1.10
2019-06-20T16:34:47.690Z,1.12
2019-06-20T16:37:16.356Z,1.30
2019-06-20T16:39:44.783Z,1.00
2019-06-20T16:42:13.452Z,1.15
2019-06-20T16:44:42.249Z,1.10
2019-06-20T16:47:10.654Z,0.90
2019-06-20T16:49:39.058Z,1.10
2019-06-20T16:52:07.554Z,1.00
2019-06-20T16:54:35.957Z,1.45
2019-06-20T16:57:04.852Z,1.00
2019-06-20T16:59:33.520Z,1.07
2019-06-20T17:02:02.020Z,1.20
2019-06-20T17:04:30.929Z,1.20
2019-06-20T17:06:59.630Z,1.20
2019-06-20T17:09:28.330Z,1.30
2019-06-20T17:11:56.729Z,1.20
2019-06-20T17:14:25.154Z,1.10
2019-06-20T17:16:53.811Z,1.20
2019-06-20T17:19:22.290Z,1.30
2019-06-20T17:21:50.961Z,1.50
2019-06-20T17:24:19.386Z,1.35
2019-06-20T17:26:47.836Z,1.20
2019-06-20T17:29:16.581Z,1.17
2019-06-20T17:31:45.284Z,1.12
2019-06-20T17:34:13.984Z,1.15
2019-06-20T17:36:42.478Z,1.30
2019-06-20T17:39:11.394Z,1.20
2019-06-20T17:41:54.182Z,1.30
2019-06-20T17:44:10.232Z,1.40
2019-06-20T17:46:38.702Z,1.20
2019-06-20T17:49:07.417Z,1.20
2019-06-20T17:51:36.104Z,1.20
2019-06-20T17:54:05.212Z,1.35
2019-06-20T17:56:33.624Z,1.40
2019-06-20T17:59:02.016Z,1.50
2019-06-20T18:01:30.722Z,1.45
2019-06-20T18:04:12.942Z,1.35
2019-06-20T18:06:29.260Z,1.30
2019-06-20T18:08:57.920Z,1.50
2019-06-20T18:11:26.457Z,1.57
2019-06-20T18:13:55.117Z,1.40
2019-06-20T18:16:25.315Z,1.42
2019-06-20T18:18:53.949Z,1.45
2019-06-20T18:21:22.359Z,1.40
2019-06-20T18:23:50.790Z,1.20
2019-06-20T18:26:19.546Z,1.42
2019-06-20T18:28:47.951Z,1.30
2019-06-20T18:31:16.631Z,1.40
2019-06-20T18:33:45.324Z,1.50
2019-06-20T18:36:13.793Z,1.45
2019-06-20T18:38:42.741Z,1.67
2019-06-20T18:41:11.156Z,1.77
2019-06-20T18:43:39.929Z,1.47
2019-06-20T18:46:08.623Z,1.42
2019-06-20T18:48:37.325Z,1.27
2019-06-20T18:51:05.728Z,1.60
2019-06-20T18:53:34.146Z,1.45
2019-06-20T18:56:02.761Z,1.30
2019-06-20T18:58:31.212Z,1.27
2019-06-20T19:01:00.132Z,1.60
2019-06-20T19:03:28.913Z,1.57
2019-06-20T19:05:57.704Z,1.50
2019-06-20T19:08:26.397Z,1.75
2019-06-20T19:10:55.102Z,1.55
2019-06-20T19:13:23.517Z,1.62
2019-06-20T19:15:52.189Z,1.70
2019-06-20T19:18:23.020Z,1.70
2019-06-20T19:20:51.020Z,1.60
2019-06-20T19:23:19.726Z,1.60
2019-06-20T19:25:48.428Z,1.60
2019-06-20T19:28:16.843Z,1.80
2019-06-20T19:30:52.335Z,1.55
2019-06-20T19:33:20.800Z,1.92
2019-06-20T19:35:49.218Z,1.60
2019-06-20T19:38:17.653Z,2.08
2019-06-20T19:40:48.092Z,1.65
2019-06-20T19:43:16.736Z,1.90
2019-06-20T19:45:45.375Z,1.62
2019-06-20T19:48:15.019Z,1.87
2019-06-20T19:50:44.433Z,1.82
2019-06-20T19:53:13.143Z,1.60
2019-06-20T19:55:42.336Z,2.00
2019-06-20T19:58:10.979Z,1.98
2019-06-20T20:00:39.669Z,2.00
2019-06-20T20:03:08.199Z,1.80
2019-06-20T20:05:36.746Z,1.90
2019-06-20T20:08:06.339Z,1.90
2019-06-20T20:10:45.970Z,1.80
2019-06-20T20:13:15.533Z,1.70
2019-06-20T20:15:44.905Z,1.90
2019-06-20T20:18:14.306Z,2.20
2019-06-20T20:20:47.385Z,1.50
2019-06-20T20:23:15.464Z,1.30
2019-06-20T20:25:44.451Z,1.37
2019-06-20T20:28:13.148Z,2.57
2019-06-20T20:30:42.057Z,1.33
2019-06-20T20:33:10.597Z,1.52
2019-06-20T20:35:39.365Z,1.40
2019-06-20T20:38:07.757Z,1.33
2019-06-20T20:40:36.455Z,1.50
2019-06-20T20:43:05.464Z,1.50
2019-06-20T20:45:33.890Z,1.40
2019-06-20T20:48:02.491Z,1.40
2019-06-20T20:50:31.125Z,1.50
2019-06-20T20:52:59.852Z,1.40
2019-06-20T20:55:28.265Z,1.50
2019-06-20T20:57:57.045Z,1.40
2019-06-20T21:00:28.621Z,1.53
2019-06-20T21:02:57.065Z,1.60
2019-06-20T21:05:25.472Z,1.50
2019-06-20T21:07:54.296Z,1.60
2019-06-20T21:10:23.188Z,1.30
2019-06-20T21:12:51.639Z,1.40
2019-06-20T21:15:21.476Z,1.50
2019-06-20T21:17:50.047Z,1.53
2019-06-20T21:20:19.036Z,1.50
2019-06-20T21:22:47.439Z,1.30
2019-06-20T21:25:16.210Z,1.53
2019-06-20T21:27:45.004Z,1.30
2019-06-20T21:30:14.100Z,1.50
2019-06-20T21:32:42.917Z,1.50
2019-06-20T21:35:11.880Z,1.20
2019-06-20T21:37:40.631Z,1.00
2019-06-20T21:40:11.165Z,1.43
2019-06-20T21:42:39.584Z,1.60
2019-06-20T21:45:09.137Z,1.40
2019-06-20T21:47:37.632Z,1.53
2019-06-20T21:50:06.381Z,1.37
2019-06-20T21:52:34.786Z,1.30
2019-06-20T21:55:04.552Z,1.40
2019-06-20T21:57:33.302Z,1.60
2019-06-20T22:00:02.005Z,1.57
2019-06-20T22:02:30.701Z,1.60
2019-06-20T22:04:59.167Z,1.50
2019-06-20T22:07:27.905Z,1.30
2019-06-20T22:09:56.315Z,1.50
2019-06-20T22:12:24.744Z,1.23
2019-06-20T22:14:53.152Z,1.90
2019-06-20T22:17:21.862Z,1.50
2019-06-20T22:19:50.562Z,1.70
2019-06-20T22:22:19.369Z,1.87
2019-06-20T22:24:48.104Z,1.57
2019-06-20T22:27:16.541Z,1.30
2019-06-20T22:29:45.359Z,1.57
2019-06-20T22:32:14.064Z,1.60
2019-06-20T22:34:42.548Z,1.67
2019-06-20T22:37:10.971Z,1.40
2019-06-20T22:39:39.392Z,1.40
2019-06-20T22:42:07.789Z,1.43
2019-06-20T22:44:36.536Z,1.53
2019-06-20T22:47:05.292Z,1.50
2019-06-20T22:49:33.726Z,1.53
2019-06-20T22:52:02.351Z,1.30
2019-06-20T22:54:30.937Z,1.70
2019-06-20T22:56:59.429Z,1.70
2019-06-20T22:59:28.062Z,1.43
2019-06-20T23:01:56.483Z,1.70
2019-06-20T23:04:24.906Z,1.70
2019-06-20T23:06:56.610Z,1.50
2019-06-20T23:09:26.421Z,1.47
2019-06-20T23:11:53.877Z,1.70
2019-06-20T23:14:22.557Z,1.60
2019-06-20T23:16:50.981Z,1.63
2019-06-20T23:19:19.753Z,1.50
2019-06-20T23:21:48.473Z,1.60
2019-06-20T23:24:17.288Z,1.63
2019-06-20T23:26:46.060Z,1.60
2019-06-20T23:29:23.456Z,1.67
2019-06-20T23:31:55.331Z,1.60
2019-06-20T23:34:24.133Z,1.70
2019-06-20T23:36:52.850Z,1.60
2019-06-20T23:39:21.533Z,1.43
2019-06-20T23:41:50.247Z,1.50
2019-06-20T23:44:18.933Z,1.67
2019-06-20T23:46:47.657Z,1.43
2019-06-20T23:49:16.053Z,1.43
2019-06-20T23:51:48.830Z,1.60
2019-06-20T23:54:17.525Z,1.50
2019-06-20T23:56:45.939Z,1.60
2019-06-20T23:59:14.352Z,1.47
